Bishops Corner, Connecticut
Current Conditions -  °F | °C
As of 12:53 PM on Saturday 20 Dec 2014 (Local Time) from KMMK Reporting Station
Overcast Overcast  
Wind Chill: 25°   Ceiling: 2800
Heat Index: 30°   Visibility: 10mi
Dew Point: 19°   Wind: 5mph
Humidity: 64%   Direction: 10°N
Pressure: 30.27"   Gusts: NA
Location:  41.5812°N, 72.8697°W
Report Text: KMMK 201753Z AUTO 01004KT 10SM OVC028 M01/M07 A3027 RMK AO2 SLP252 T10111072 11011 21033 58004 TSNO
Loading
Personal Weather Stations






























Interactive Weather Map New forecast layout! Learn more

10-Day Weather Forecast

Advertisements
Track Severe Weather on mobile